Time;durP1;ratioP1;P1;durP2;ratioP2;P2;SDS_P1;SDS_P2;PMS_P1;PMS_P2;Temp;Humidity;BMP_temperature;BMP_pressure;BME280_temperature;BME280_humidity;BME280_pressure;Samples;Min_cycle;Max_cycle;Signal;HPM_P1;HPM_P2
2022/11/29 00:01:56;;;;;;;;;40.75;39.75;;;;;8.09;55.79;99715.81;5068331;28;8850;-75
2022/11/29 00:04:24;;;;;;;;;49.25;41.75;;;;;8.08;56.06;99720.13;5067823;28;8880;-75
2022/11/29 00:06:53;;;;;;;;;49.75;44.25;;;;;8.00;55.56;99716.59;5069173;28;8923;-73
2022/11/29 00:09:22;;;;;;;;;49.00;42.25;;;;;7.97;56.14;99724.31;5050151;28;8874;-73
2022/11/29 00:14:38;;;;;;;;;46.00;38.75;;;;;8.08;55.39;99717.53;5069960;28;8874;-74
2022/11/29 00:17:07;;;;;;;;;48.25;41.00;;;;;8.07;55.10;99714.91;5067273;28;8967;-74
2022/11/29 00:19:36;;;;;;;;;42.50;39.50;;;;;7.98;55.96;99715.69;5082905;28;8866;-73
2022/11/29 00:22:05;;;;;;;;;40.50;35.75;;;;;8.02;55.97;99717.47;5089616;28;8840;-72
2022/11/29 00:24:35;;;;;;;;;44.75;36.75;;;;;7.92;56.12;99721.69;5054640;28;8955;-73
2022/11/29 00:27:04;;;;;;;;;46.75;42.25;;;;;7.88;55.97;99717.31;5126649;27;8852;-73
2022/11/29 00:29:33;;;;;;;;;46.25;41.75;;;;;7.88;55.90;99716.41;5090638;28;8847;-73
2022/11/29 00:32:04;;;;;;;;;44.50;39.75;;;;;7.87;55.92;99706.91;5088688;28;8886;-74
2022/11/29 00:34:32;;;;;;;;;45.25;40.75;;;;;7.83;55.69;99712.91;5103768;28;8978;-73
2022/11/29 00:37:01;;;;;;;;;40.50;33.00;;;;;7.93;56.25;99713.03;5088252;28;8865;-73
2022/11/29 00:39:29;;;;;;;;;50.25;41.00;;;;;7.96;56.06;99714.81;5078897;28;8850;-74
2022/11/29 00:41:58;;;;;;;;;49.75;40.75;;;;;7.83;56.43;99713.75;5068089;28;8850;-74
2022/11/29 00:44:26;;;;;;;;;41.00;36.75;;;;;7.90;55.73;99712.09;5072535;28;8847;-75
2022/11/29 00:46:55;;;;;;;;;54.00;43.00;;;;;7.87;56.00;99715.53;5087398;28;8863;-72
2022/11/29 00:49:25;;;;;;;;;46.50;42.25;;;;;7.97;55.63;99711.34;5087223;28;8942;-73
2022/11/29 00:51:54;;;;;;;;;43.75;39.50;;;;;7.93;56.02;99719.94;5068114;28;8858;-75
2022/11/29 00:54:22;;;;;;;;;53.00;42.50;;;;;7.99;55.61;99713.09;5068238;28;8877;-74
2022/11/29 00:56:51;;;;;;;;;48.25;42.00;;;;;8.01;55.67;99713.13;5066637;28;9008;-72
2022/11/29 00:59:20;;;;;;;;;43.50;39.00;;;;;7.94;55.44;99713.88;5052394;28;9012;-73
2022/11/29 01:01:48;;;;;;;;;32.25;24.75;;;;;8.03;55.27;99719.19;5088456;28;10021;-74
2022/11/29 01:04:17;;;;;;;;;43.25;40.75;;;;;8.03;55.10;99721.78;5088595;28;8986;-73
2022/11/29 01:06:51;;;;;;;;;39.00;36.75;;;;;8.12;55.00;99710.66;5088200;28;8858;-74
2022/11/29 01:09:19;;;;;;;;;42.25;37.00;;;;;8.13;54.89;99713.28;5088861;28;8890;-73
2022/11/29 01:11:49;;;;;;;;;37.75;31.25;;;;;8.16;54.65;99717.63;5086865;28;8887;-73
2022/11/29 01:14:18;;;;;;;;;41.25;38.75;;;;;8.18;54.48;99706.44;5088297;28;8832;-72
2022/11/29 01:16:47;;;;;;;;;39.25;34.00;;;;;8.11;54.71;99707.19;5053473;28;8900;-74
2022/11/29 01:19:15;;;;;;;;;46.50;40.00;;;;;8.18;54.55;99702.94;5067810;28;8866;-73
2022/11/29 01:21:44;;;;;;;;;43.75;32.25;;;;;8.08;54.61;99699.34;5067468;28;8858;-73
2022/11/29 01:24:13;;;;;;;;;39.25;36.50;;;;;8.09;54.59;99700.22;5081268;28;8856;-72
2022/11/29 01:26:42;;;;;;;;;42.00;37.80;;;;;7.92;55.30;99700.00;5086606;28;9589;-74
2022/11/29 01:29:13;;;;;;;;;47.50;39.50;;;;;7.90;55.52;99699.13;5087883;28;9663;-73
2022/11/29 01:31:41;;;;;;;;;39.25;36.25;;;;;7.98;54.38;99697.53;5083271;28;8836;-73
2022/11/29 01:34:10;;;;;;;;;28.00;21.50;;;;;7.83;54.61;99687.81;5070691;28;8828;-73
2022/11/29 01:36:39;;;;;;;;;39.75;35.75;;;;;7.75;55.05;99690.31;5085096;28;9660;-73
2022/11/29 01:39:08;;;;;;;;;38.40;33.60;;;;;7.80;55.20;99691.22;5062278;28;9722;-75
2022/11/29 01:41:38;;;;;;;;;41.00;37.50;;;;;7.76;55.59;99694.63;5063274;28;8922;-74
2022/11/29 01:44:28;;;;;;;;;40.20;34.80;;;;;7.89;55.04;99690.47;5064746;28;8859;-71
2022/11/29 01:46:57;;;;;;;;;38.00;35.00;;;;;7.91;54.64;99686.16;5063748;28;8860;-73
2022/11/29 01:49:31;;;;;;;;;38.00;33.80;;;;;7.90;54.78;99680.94;5063124;28;8866;-74
2022/11/29 01:52:04;;;;;;;;;40.60;31.40;;;;;7.99;54.24;99684.53;5063377;28;8844;-73
2022/11/29 01:54:37;;;;;;;;;35.00;29.50;;;;;7.86;54.75;99692.16;5062704;28;8966;-74
2022/11/29 01:57:08;;;;;;;;;37.00;31.50;;;;;7.87;53.96;99687.00;5062543;28;8962;-71
2022/11/29 01:59:43;;;;;;;;;33.80;29.40;;;;;7.94;54.33;99688.81;5065689;28;8844;-72
2022/11/29 02:02:14;;;;;;;;;34.80;31.20;;;;;7.88;54.22;99677.47;5063917;28;8922;-74
2022/11/29 02:04:45;;;;;;;;;37.60;34.20;;;;;7.87;54.10;99675.75;5046339;28;8847;-73
2022/11/29 02:07:14;;;;;;;;;33.00;31.20;;;;;7.89;54.21;99671.44;5063276;28;8864;-72
2022/11/29 02:09:44;;;;;;;;;34.20;28.40;;;;;7.83;53.81;99669.63;5018203;28;8866;-73
2022/11/29 02:12:27;;;;;;;;;36.00;32.40;;;;;7.73;54.75;99666.06;5085144;28;8864;-72
2022/11/29 02:15:08;;;;;;;;;35.40;35.00;;;;;7.77;54.43;99666.97;5100523;28;8848;-73
2022/11/29 02:17:52;;;;;;;;;36.20;31.40;;;;;7.77;54.31;99664.38;5085615;28;8962;-75
2022/11/29 02:20:54;;;;;;;;;39.80;31.20;;;;;7.69;54.14;99671.16;5085665;28;9004;-73
2022/11/29 02:23:51;;;;;;;;;37.00;32.00;;;;;7.70;54.92;99670.34;5085846;28;8865;-73
2022/11/29 02:26:37;;;;;;;;;41.80;33.40;;;;;7.52;54.47;99677.00;5067996;28;8852;-73
2022/11/29 02:29:43;;;;;;;;;37.00;32.20;;;;;7.60;54.42;99669.34;5086256;28;8870;-73
2022/11/29 02:32:57;;;;;;;;;36.60;33.00;;;;;7.41;54.96;99673.41;5084577;28;8847;-73
2022/11/29 02:35:49;;;;;;;;;40.50;34.25;;;;;7.51;55.26;99675.28;5085892;28;8893;-74
2022/11/29 02:38:35;;;;;;;;;39.60;35.00;;;;;7.28;56.26;99671.47;5022384;28;8880;-73
2022/11/29 02:41:22;;;;;;;;;33.40;30.20;;;;;7.31;55.93;99676.69;5023332;28;8920;-75
2022/11/29 02:44:06;;;;;;;;;37.60;34.40;;;;;7.21;56.55;99673.97;5022784;28;8864;-74
2022/11/29 02:46:55;;;;;;;;;46.00;37.20;;;;;7.34;56.09;99672.44;5020865;28;8884;-74
2022/11/29 02:49:41;;;;;;;;;42.25;33.75;;;;;7.25;55.90;99667.09;4994302;28;8854;-73
2022/11/29 02:52:18;;;;;;;;;36.80;32.00;;;;;7.22;55.65;99669.63;5028884;28;8865;-74
2022/11/29 02:54:53;;;;;;;;;41.25;35.50;;;;;7.22;56.37;99673.13;5028660;28;8879;-72
2022/11/29 02:57:31;;;;;;;;;42.25;39.00;;;;;7.36;55.71;99669.88;5026928;28;8963;-74
2022/11/29 03:00:05;;;;;;;;;34.60;32.60;;;;;7.34;55.93;99671.56;5006906;28;9097;-74
2022/11/29 03:02:40;;;;;;;;;36.80;30.60;;;;;7.39;55.08;99672.47;5025672;28;8853;-73
2022/11/29 03:05:20;;;;;;;;;44.20;39.20;;;;;7.34;55.29;99662.06;5024571;28;8844;-72
2022/11/29 03:07:58;;;;;;;;;34.75;33.75;;;;;7.33;55.87;99669.81;4993651;28;9005;-74
2022/11/29 03:10:38;;;;;;;;;35.00;30.25;;;;;7.50;55.16;99670.91;4993133;28;9585;-73
2022/11/29 03:13:17;;;;;;;;;40.50;35.00;;;;;7.45;55.31;99672.59;5026239;28;8868;-73
2022/11/29 03:15:57;;;;;;;;;49.25;41.50;;;;;7.50;55.67;99672.66;5037493;28;8862;-72
2022/11/29 03:18:34;;;;;;;;;38.00;36.20;;;;;7.51;55.00;99659.69;5093521;28;8867;-72
2022/11/29 03:21:19;;;;;;;;;39.50;36.50;;;;;7.60;55.23;99669.34;5082955;28;10298;-73
2022/11/29 03:23:50;;;;;;;;;44.75;37.75;;;;;7.58;54.52;99669.31;5088594;28;8868;-73
2022/11/29 03:26:24;;;;;;;;;41.00;38.25;;;;;7.55;54.99;99682.25;5089662;28;8836;-75
2022/11/29 03:29:00;;;;;;;;;36.80;30.80;;;;;7.56;55.05;99677.91;5069349;28;8932;-74
2022/11/29 03:31:33;;;;;;;;;44.75;38.25;;;;;7.68;54.62;99677.22;5070879;28;8850;-75
2022/11/29 03:34:16;;;;;;;;;35.20;29.20;;;;;7.79;54.23;99675.66;5069752;28;8961;-75
2022/11/29 03:36:55;;;;;;;;;29.80;26.40;;;;;7.87;54.75;99670.53;5069483;28;8842;-72
2022/11/29 03:39:34;;;;;;;;;39.75;35.75;;;;;7.83;54.30;99674.81;5078788;28;8919;-73
2022/11/29 03:42:08;;;;;;;;;49.20;38.40;;;;;7.88;54.58;99677.47;5051440;28;8858;-73
2022/11/29 03:44:46;;;;;;;;;41.00;39.00;;;;;7.87;54.18;99676.59;5069950;28;8926;-73
2022/11/29 03:47:19;;;;;;;;;35.20;31.20;;;;;7.90;54.12;99671.47;5069630;28;8850;-73
2022/11/29 03:49:54;;;;;;;;;48.25;40.25;;;;;7.93;54.69;99673.22;5069804;28;8850;-74
2022/11/29 03:52:32;;;;;;;;;39.25;36.75;;;;;7.72;54.97;99672.09;5097645;28;8910;-72
2022/11/29 03:55:19;;;;;;;;;45.75;39.75;;;;;7.68;55.31;99675.50;5077439;28;8815;-74
2022/11/29 03:58:13;;;;;;;;;38.75;34.75;;;;;7.91;54.34;99668.00;5069307;28;8842;-74
2022/11/29 04:01:07;;;;;;;;;42.25;37.00;;;;;7.79;55.19;99676.50;5068475;28;8843;-74
2022/11/29 04:03:58;;;;;;;;;42.50;36.75;;;;;7.57;55.68;99677.06;5069240;28;8866;-73
2022/11/29 04:06:46;;;;;;;;;41.75;38.75;;;;;7.46;56.36;99681.25;5065343;28;8851;-74
2022/11/29 04:09:42;;;;;;;;;40.50;33.00;;;;;7.42;56.40;99688.97;5089317;28;9612;-73
2022/11/29 04:12:57;;;;;;;;;43.25;38.00;;;;;7.26;56.80;99681.84;5080766;28;8860;-72
2022/11/29 04:16:04;;;;;;;;;47.75;41.25;;;;;7.35;56.67;99684.56;4990532;28;8847;-73
2022/11/29 04:19:11;;;;;;;;;42.75;40.25;;;;;7.43;56.55;99695.06;4990449;28;8965;-73
2022/11/29 04:22:10;;;;;;;;;40.75;38.75;;;;;7.25;56.92;99682.66;5007042;28;8853;-74
2022/11/29 04:25:11;;;;;;;;;47.75;40.75;;;;;7.09;57.28;99688.47;4965435;28;8973;-72
2022/11/29 04:28:03;;;;;;;;;54.00;42.50;;;;;7.10;58.17;99683.31;4834547;29;8999;-73
2022/11/29 04:30:46;;;;;;;;;48.00;38.75;;;;;7.00;58.10;99691.78;4835442;29;8894;-74
2022/11/29 04:33:41;;;;;;;;;46.50;39.75;;;;;7.10;57.98;99677.25;4835458;29;8928;-72
2022/11/29 04:36:47;;;;;;;;;41.75;36.75;;;;;7.08;58.04;99679.81;4850787;29;8919;-73
2022/11/29 04:39:37;;;;;;;;;48.50;40.50;;;;;7.13;58.40;99695.47;4800332;29;8900;-73
2022/11/29 04:42:35;;;;;;;;;42.00;36.00;;;;;7.10;57.55;99685.91;4802407;29;8904;-73
2022/11/29 04:45:45;;;;;;;;;48.50;41.00;;;;;7.03;58.35;99678.88;4781252;29;8939;-73
2022/11/29 04:48:32;;;;;;;;;41.50;40.00;;;;;7.06;58.26;99678.91;4816697;29;8909;-74
2022/11/29 04:51:14;;;;;;;;;36.25;35.75;;;;;6.97;58.56;99694.31;4816565;29;8909;-73
2022/11/29 04:53:51;;;;;;;;;43.75;36.50;;;;;7.10;57.34;99692.81;4801678;29;8917;-74
2022/11/29 04:56:33;;;;;;;;;32.00;31.00;;;;;6.89;58.21;99698.53;4816579;29;8885;-74
2022/11/29 04:59:10;;;;;;;;;44.25;39.75;;;;;7.14;58.15;99699.78;4819597;29;8908;-73
2022/11/29 05:01:54;;;;;;;;;35.25;33.50;;;;;7.07;57.72;99704.03;4873860;29;8891;-75
2022/11/29 05:04:30;;;;;;;;;38.00;34.75;;;;;7.11;57.97;99702.34;4893211;28;8867;-73
2022/11/29 05:07:06;;;;;;;;;36.50;33.75;;;;;7.27;57.09;99704.31;4941590;28;8860;-74
2022/11/29 05:09:50;;;;;;;;;57.25;47.25;;;;;7.25;57.55;99706.00;4943353;28;8999;-75
2022/11/29 05:12:27;;;;;;;;;43.25;36.25;;;;;7.25;56.88;99700.81;4989586;28;8855;-73
2022/11/29 05:15:17;;;;;;;;;46.75;35.50;;;;;7.16;56.87;99696.34;5005009;28;8903;-72
2022/11/29 05:17:56;;;;;;;;;13.50;8.75;;;;;7.05;57.89;99707.41;5065009;28;8842;-72
2022/11/29 05:20:39;;;;;;;;;40.50;36.00;;;;;7.14;57.22;99707.56;5068930;28;8886;-73
2022/11/29 05:23:25;;;;;;;;;37.40;33.00;;;;;7.29;56.60;99714.72;5067449;28;8976;-73
2022/11/29 05:26:01;;;;;;;;;34.60;32.40;;;;;6.94;57.45;99708.13;5032065;28;8847;-74
2022/11/29 05:28:42;;;;;;;;;38.40;35.00;;;;;6.92;57.94;99717.59;5073787;28;8976;-72
2022/11/29 05:31:30;;;;;;;;;37.80;29.00;;;;;7.02;58.28;99710.84;5069548;28;8851;-73
2022/11/29 05:34:20;;;;;;;;;39.60;33.80;;;;;6.90;57.88;99713.22;5086590;28;8842;-73
2022/11/29 05:37:01;;;;;;;;;33.00;28.60;;;;;6.96;57.84;99713.34;5119261;27;8851;-74
2022/11/29 05:39:41;;;;;;;;;40.00;30.80;;;;;7.01;57.74;99712.56;5073327;28;8870;-72
2022/11/29 05:42:38;;;;;;;;;36.20;31.80;;;;;7.41;56.82;99717.50;5084077;28;8861;-75
2022/11/29 05:45:17;;;;;;;;;32.20;28.00;;;;;7.28;56.94;99712.97;5085784;28;8941;-74
2022/11/29 05:47:53;;;;;;;;;32.20;30.80;;;;;7.15;57.45;99719.69;5074620;28;8947;-74
2022/11/29 05:50:30;;;;;;;;;39.40;28.00;;;;;7.27;57.12;99716.41;5066370;28;9650;-73
2022/11/29 05:53:20;;;;;;;;;30.80;28.80;;;;;7.10;58.18;99721.34;5066583;28;8838;-74
2022/11/29 05:55:59;;;;;;;;;25.40;25.00;;;;;7.30;57.38;99730.31;5048603;28;8865;-75
2022/11/29 05:58:47;;;;;;;;;35.20;32.60;;;;;7.28;57.50;99729.41;5066206;28;8924;-73
2022/11/29 06:01:22;;;;;;;;;40.80;33.20;;;;;7.51;56.50;99736.69;5076826;28;8880;-74
2022/11/29 06:03:58;;;;;;;;;32.40;30.20;;;;;7.52;56.61;99734.09;5066117;28;8826;-74
2022/11/29 06:06:38;;;;;;;;;38.40;29.40;;;;;7.66;56.30;99736.03;5088742;28;8853;-72
2022/11/29 06:09:16;;;;;;;;;35.00;29.20;;;;;7.55;56.36;99741.91;5086040;28;8841;-73
2022/11/29 06:11:49;;;;;;;;;37.00;32.60;;;;;7.72;56.22;99730.91;5100866;28;9015;-75
2022/11/29 06:14:35;;;;;;;;;30.60;29.00;;;;;7.71;55.60;99739.53;5066841;28;8968;-75
2022/11/29 06:17:33;;;;;;;;;27.60;24.40;;;;;7.85;54.99;99739.75;5083422;28;9035;-74
2022/11/29 06:20:33;;;;;;;;;32.40;29.60;;;;;7.91;55.27;99739.84;5082651;28;8850;-74
2022/11/29 06:23:23;;;;;;;;;21.60;18.20;;;;;7.75;55.83;99742.22;5068357;28;8854;-75
2022/11/29 06:26:10;;;;;;;;;25.60;21.20;;;;;7.65;55.51;99739.47;5070610;28;8997;-76
2022/11/29 06:28:54;;;;;;;;;27.40;25.40;;;;;7.67;56.23;99736.03;5071277;28;8921;-77
2022/11/29 06:31:27;;;;;;;;;32.00;27.40;;;;;7.90;54.86;99748.47;5030955;28;8949;-75
2022/11/29 06:34:02;;;;;;;;;32.80;30.20;;;;;7.84;55.10;99744.06;5047485;28;8977;-76
2022/11/29 06:36:36;;;;;;;;;42.75;36.25;;;;;7.93;55.21;99740.72;5062602;28;8854;-76
2022/11/29 06:39:07;;;;;;;;;55.50;44.75;;;;;7.96;54.77;99748.56;5058985;28;8856;-77
2022/11/29 06:41:36;;;;;;;;;53.75;44.50;;;;;7.80;54.67;99755.25;5028190;28;8851;-75
2022/11/29 06:44:06;;;;;;;;;44.00;39.25;;;;;7.89;54.14;99754.53;5027950;28;8847;-76
2022/11/29 06:46:45;;;;;;;;;43.00;39.50;;;;;7.98;54.91;99754.66;5027739;28;9002;-76
2022/11/29 06:49:23;;;;;;;;;37.00;33.80;;;;;7.96;54.99;99756.34;5028242;28;8875;-76
2022/11/29 06:52:03;;;;;;;;;35.40;31.40;;;;;7.81;54.56;99764.78;5011029;28;8901;-75
2022/11/29 06:54:47;;;;;;;;;38.40;35.00;;;;;8.04;54.25;99759.91;5029050;28;8861;-74
2022/11/29 06:57:24;;;;;;;;;33.40;30.40;;;;;8.24;53.31;99757.59;5001218;28;8856;-75
2022/11/29 07:00:03;;;;;;;;;36.20;31.80;;;;;8.11;53.73;99755.66;5023646;28;8883;-75
2022/11/29 07:02:55;;;;;;;;;35.00;30.80;;;;;8.04;54.00;99761.66;5044555;28;8859;-76
2022/11/29 07:05:27;;;;;;;;;31.80;29.80;;;;;7.88;54.81;99768.34;5036737;28;8858;-75
2022/11/29 07:07:58;;;;;;;;;28.80;25.40;;;;;8.05;54.17;99769.44;5076195;28;8969;-75
2022/11/29 07:10:31;;;;;;;;;34.60;29.40;;;;;7.96;54.85;99767.59;5087609;28;8981;-76
2022/11/29 07:13:00;;;;;;;;;31.00;29.20;;;;;8.12;53.97;99767.81;5070320;28;8847;-75
2022/11/29 07:15:30;;;;;;;;;33.20;28.20;;;;;8.11;53.86;99771.25;5078727;28;8855;-78
2022/11/29 07:18:12;;;;;;;;;32.40;29.20;;;;;8.25;53.35;99768.84;5050814;28;8862;-76
2022/11/29 07:20:50;;;;;;;;;36.60;35.80;;;;;8.14;53.67;99763.50;5087103;28;8858;-77
2022/11/29 07:23:27;;;;;;;;;25.00;23.80;;;;;8.20;54.38;99756.66;5041780;28;8862;-78
2022/11/29 07:26:13;;;;;;;;;29.40;29.00;;;;;8.49;52.96;99753.56;5071306;28;9983;-75
2022/11/29 07:29:00;;;;;;;;;35.80;32.20;;;;;8.50;53.33;99754.44;5072840;28;8859;-78
2022/11/29 07:31:41;;;;;;;;;33.20;28.20;;;;;8.69;52.70;99745.97;5085021;28;9671;-77
2022/11/29 07:34:18;;;;;;;;;40.40;31.60;;;;;8.60;52.39;99745.91;5084354;28;8866;-77
2022/11/29 07:36:59;;;;;;;;;32.20;28.80;;;;;8.79;52.44;99746.94;5082134;28;8886;-76
2022/11/29 07:39:40;;;;;;;;;38.00;32.60;;;;;8.61;53.17;99742.41;5106387;28;8879;-77
2022/11/29 07:42:19;;;;;;;;;42.00;34.40;;;;;8.35;53.47;99739.50;5085847;28;8900;-76
2022/11/29 07:44:59;;;;;;;;;31.60;28.40;;;;;8.51;53.61;99745.78;5069366;28;8905;-78
2022/11/29 07:47:28;;;;;;;;;33.60;28.20;;;;;8.45;53.26;99741.41;5069670;28;8858;-75
2022/11/29 07:50:03;;;;;;;;;35.20;33.40;;;;;8.39;52.98;99744.75;5067267;28;9746;-77
2022/11/29 07:52:33;;;;;;;;;32.40;31.20;;;;;8.45;52.62;99738.81;5092282;28;8878;-76
2022/11/29 07:55:02;;;;;;;;;36.60;31.80;;;;;8.58;52.53;99743.28;5078965;28;8842;-78
2022/11/29 07:57:32;;;;;;;;;32.40;28.60;;;;;8.68;52.51;99740.78;5086408;28;8838;-77
2022/11/29 08:00:00;;;;;;;;;35.20;30.60;;;;;8.83;52.02;99743.53;5077408;28;8905;-78
2022/11/29 08:02:39;;;;;;;;;32.80;27.00;;;;;8.84;51.75;99739.19;5088754;28;8945;-77
2022/11/29 08:05:09;;;;;;;;;30.20;26.00;;;;;9.05;51.54;99747.16;5090015;28;9099;-75
2022/11/29 08:07:39;;;;;;;;;32.00;27.00;;;;;9.21;50.83;99747.31;5122295;27;8843;-76
2022/11/29 08:10:10;;;;;;;;;30.20;27.40;;;;;9.36;50.66;99748.31;5088795;28;8840;-76
2022/11/29 08:12:44;;;;;;;;;28.60;27.00;;;;;9.21;51.30;99750.78;5087845;28;8882;-77
2022/11/29 08:15:13;;;;;;;;;36.40;32.20;;;;;9.32;50.50;99749.16;5028262;28;8871;-78
2022/11/29 08:17:42;;;;;;;;;30.20;26.00;;;;;9.68;50.21;99758.09;5071867;28;8839;-76
2022/11/29 08:20:11;;;;;;;;;23.80;20.80;;;;;9.65;49.79;99741.56;5088047;28;8890;-76
2022/11/29 08:22:40;;;;;;;;;32.20;28.80;;;;;9.97;49.88;99744.34;5089032;28;8855;-76
2022/11/29 08:25:10;;;;;;;;;28.00;25.40;;;;;9.92;49.35;99749.56;5087691;28;8848;-78
2022/11/29 08:27:39;;;;;;;;;25.40;23.60;;;;;10.03;49.09;99751.31;5089237;28;8839;-80
2022/11/29 08:30:10;;;;;;;;;29.40;28.00;;;;;10.12;48.62;99756.59;5101998;28;8873;-77
2022/11/29 08:32:38;;;;;;;;;26.60;25.80;;;;;10.07;48.84;99753.94;5053533;28;8863;-77
2022/11/29 08:35:07;;;;;;;;;27.20;24.80;;;;;10.23;48.49;99754.03;5089292;28;8852;-76
2022/11/29 08:37:36;;;;;;;;;25.60;25.60;;;;;10.33;47.80;99748.88;5089394;28;8863;-76
2022/11/29 08:40:06;;;;;;;;;30.80;26.80;;;;;10.50;47.93;99748.06;5070251;28;8992;-75
2022/11/29 08:42:34;;;;;;;;;30.20;24.40;;;;;10.44;48.45;99759.34;5069514;28;8877;-78
2022/11/29 08:45:05;;;;;;;;;29.00;28.00;;;;;10.58;47.41;99758.53;5075819;28;8842;-75
2022/11/29 08:47:39;;;;;;;;;31.20;28.20;;;;;10.85;47.71;99753.38;5062402;28;8842;-77
2022/11/29 08:50:11;;;;;;;;;30.40;28.20;;;;;11.01;47.06;99754.25;5069769;28;8866;-75
2022/11/29 08:55:32;;;;;;;;;27.60;21.40;;;;;11.01;45.57;99761.22;5069366;28;8865;-77
2022/11/29 08:58:03;;;;;;;;;29.00;25.60;;;;;10.93;46.71;99758.59;5069318;28;8850;-77
2022/11/29 09:00:32;;;;;;;;;29.40;22.40;;;;;11.09;45.91;99757.72;5078467;28;8955;-75
2022/11/29 09:05:49;;;;;;;;;21.00;19.00;;;;;10.99;45.58;99763.81;5069617;28;8924;-74
2022/11/29 09:08:19;;;;;;;;;23.00;17.20;;;;;10.90;45.46;99754.22;5034078;28;8858;-74
2022/11/29 09:10:48;;;;;;;;;20.40;17.60;;;;;11.03;45.40;99752.50;5066540;28;8854;-75
2022/11/29 09:13:17;;;;;;;;;18.40;17.00;;;;;10.96;45.23;99757.72;5068355;28;9608;-76
2022/11/29 09:15:46;;;;;;;;;19.00;18.80;;;;;10.93;45.38;99748.16;5068668;28;9014;-75
2022/11/29 09:18:16;;;;;;;;;15.60;14.40;;;;;11.01;44.68;99748.19;5068250;28;8870;-75
2022/11/29 09:20:44;;;;;;;;;27.60;23.00;;;;;10.96;44.95;99742.94;5068136;28;8984;-77
2022/11/29 09:23:13;;;;;;;;;18.40;17.00;;;;;10.92;44.96;99754.25;5067908;28;8874;-77
2022/11/29 09:25:48;;;;;;;;;18.00;16.60;;;;;10.99;45.12;99745.56;5066938;28;8988;-75
2022/11/29 09:28:16;;;;;;;;;20.20;17.80;;;;;10.86;44.74;99746.41;5067939;28;8961;-77
2022/11/29 09:30:45;;;;;;;;;18.80;17.80;;;;;10.97;45.17;99742.09;5032258;28;8884;-77
2022/11/29 09:33:13;;;;;;;;;18.40;17.00;;;;;10.97;44.28;99738.59;5068300;28;8873;-76
2022/11/29 09:35:43;;;;;;;;;17.40;16.40;;;;;11.06;44.44;99738.63;5109653;27;8889;-76
2022/11/29 09:38:13;;;;;;;;;17.40;16.40;;;;;10.84;44.67;99738.59;5089813;28;8864;-77
2022/11/29 09:40:48;;;;;;;;;19.60;17.80;;;;;10.86;44.74;99736.84;5059826;28;8862;-75
2022/11/29 09:43:27;;;;;;;;;18.80;17.00;;;;;10.70;44.83;99735.97;5085982;28;8877;-76
2022/11/29 09:46:02;;;;;;;;;19.40;16.80;;;;;10.95;44.68;99737.75;5067605;28;8868;-76
2022/11/29 09:48:56;;;;;;;;;15.60;15.60;;;;;10.63;44.28;99731.59;5085921;28;8867;-76
2022/11/29 09:51:30;;;;;;;;;20.80;19.00;;;;;10.81;45.34;99736.00;5087384;28;8867;-77
2022/11/29 09:54:22;;;;;;;;;13.20;13.20;;;;;11.09;44.34;99721.19;5085735;28;8867;-76
2022/11/29 09:56:54;;;;;;;;;14.60;14.60;;;;;10.97;44.88;99717.75;5033751;28;8848;-77
2022/11/29 09:59:27;;;;;;;;;15.80;15.80;;;;;11.02;44.06;99724.69;5072635;28;8834;-73
2022/11/29 10:02:02;;;;;;;;;20.60;17.00;;;;;11.29;44.48;99718.59;5052582;28;9586;-77
2022/11/29 10:04:39;;;;;;;;;20.20;13.80;;;;;11.19;43.71;99714.25;5071840;28;8881;-75
2022/11/29 10:07:17;;;;;;;;;15.80;14.20;;;;;11.28;43.61;99708.16;5087390;28;8943;-77
2022/11/29 10:09:51;;;;;;;;;15.20;13.00;;;;;11.27;43.67;99714.25;5099686;28;8812;-76
2022/11/29 10:12:30;;;;;;;;;16.40;15.20;;;;;11.25;43.85;99698.59;5092039;28;8886;-75
2022/11/29 10:15:07;;;;;;;;;14.60;13.00;;;;;11.46;43.67;99699.44;5090619;28;8843;-74
2022/11/29 10:17:40;;;;;;;;;19.40;17.40;;;;;11.27;43.97;99699.44;5090614;28;8836;-76
2022/11/29 10:20:15;;;;;;;;;13.20;11.20;;;;;11.46;43.20;99702.91;5091153;28;8908;-79
2022/11/29 10:22:52;;;;;;;;;19.60;17.40;;;;;11.62;43.62;99705.47;5124969;27;8872;-76
2022/11/29 10:25:25;;;;;;;;;19.40;16.80;;;;;11.65;42.99;99698.50;5090777;28;8908;-74
2022/11/29 10:27:54;;;;;;;;;21.00;18.00;;;;;11.76;43.57;99705.44;5090771;28;9598;-76
2022/11/29 10:30:23;;;;;;;;;19.40;17.60;;;;;11.66;43.08;99702.88;5073985;28;8912;-77
2022/11/29 10:32:57;;;;;;;;;14.00;14.00;;;;;11.62;43.49;99706.34;5095724;28;8867;-77
2022/11/29 10:35:28;;;;;;;;;18.80;15.40;;;;;11.76;43.11;99698.50;5098448;28;8854;-76
2022/11/29 10:38:02;;;;;;;;;20.20;19.40;;;;;11.78;42.90;99699.34;5085228;28;8852;-76
2022/11/29 10:40:56;;;;;;;;;17.20;14.40;;;;;11.96;42.90;99689.75;5092525;28;9566;-76
2022/11/29 10:43:26;;;;;;;;;15.20;15.20;;;;;12.03;42.51;99692.31;5090988;28;8862;-77
2022/11/29 10:45:55;;;;;;;;;18.80;18.00;;;;;12.18;42.46;99683.53;5071032;28;8973;-76
2022/11/29 10:48:30;;;;;;;;;27.20;24.20;;;;;12.20;43.83;99680.94;5070946;28;8888;-77
2022/11/29 10:51:00;;;;;;;;;29.60;21.00;;;;;12.27;43.43;99669.56;5088179;28;8851;-77
2022/11/29 10:53:34;;;;;;;;;26.40;25.60;;;;;12.08;43.72;99674.88;5087480;28;8867;-78
2022/11/29 10:56:08;;;;;;;;;29.60;28.00;;;;;11.92;44.70;99675.81;5087295;28;8852;-78
2022/11/29 10:58:53;;;;;;;;;25.60;24.00;;;;;11.44;45.60;99665.47;5071910;28;8881;-76
2022/11/29 11:01:22;;;;;;;;;27.20;24.80;;;;;11.69;44.96;99666.28;5068946;28;8858;-73
2022/11/29 11:03:53;;;;;;;;;25.80;25.20;;;;;11.78;45.42;99669.75;5070193;28;9674;-74
2022/11/29 11:06:24;;;;;;;;;29.00;24.40;;;;;11.77;45.52;99662.78;5073253;28;8835;-76
2022/11/29 11:08:56;;;;;;;;;26.20;24.40;;;;;11.59;44.78;99675.03;5105229;28;8913;-73
2022/11/29 11:11:28;;;;;;;;;29.20;25.00;;;;;11.39;46.26;99662.00;5090282;28;8867;-76
2022/11/29 11:14:01;;;;;;;;;28.60;23.80;;;;;11.42;46.85;99654.19;5089239;28;8851;-76
2022/11/29 11:16:30;;;;;;;;;26.60;22.40;;;;;11.16;47.16;99655.97;5081698;28;8854;-76
2022/11/29 11:19:24;;;;;;;;;24.00;23.00;;;;;11.17;46.73;99655.06;5086706;28;8870;-76
2022/11/29 11:21:53;;;;;;;;;23.80;19.60;;;;;10.89;47.03;99655.97;5088797;28;8844;-78
2022/11/29 11:24:24;;;;;;;;;31.60;25.40;;;;;11.06;46.62;99668.16;5092397;28;9000;-76
2022/11/29 11:26:53;;;;;;;;;26.80;23.00;;;;;11.03;46.98;99663.78;5096661;28;8875;-74
2022/11/29 11:29:25;;;;;;;;;18.80;16.60;;;;;10.79;46.94;99655.97;5110521;28;8867;-76
2022/11/29 11:31:56;;;;;;;;;34.60;26.20;;;;;10.75;47.54;99664.66;5090036;28;8859;-76
2022/11/29 11:34:28;;;;;;;;;25.40;21.80;;;;;10.81;47.96;99660.34;5090341;28;8970;-77
2022/11/29 11:37:19;;;;;;;;;25.80;24.80;;;;;11.22;46.74;99655.94;5054605;28;8859;-78
2022/11/29 11:39:50;;;;;;;;;23.40;22.40;;;;;11.35;46.69;99664.63;5105960;28;8866;-76
2022/11/29 11:42:38;;;;;;;;;29.00;26.20;;;;;11.07;46.40;99652.47;5088409;28;8839;-76
2022/11/29 11:45:37;;;;;;;;;27.60;26.80;;;;;11.18;46.74;99660.31;5076234;28;8944;-77
2022/11/29 11:48:13;;;;;;;;;25.00;25.00;;;;;10.99;46.85;99649.00;5068143;28;8832;-75
2022/11/29 11:50:44;;;;;;;;;31.80;27.20;;;;;10.87;46.89;99647.28;5071011;28;8871;-75
2022/11/29 11:53:21;;;;;;;;;27.20;24.40;;;;;10.86;46.50;99645.53;5069087;28;8974;-76
2022/11/29 11:56:01;;;;;;;;;26.20;20.80;;;;;10.76;46.80;99653.38;5067526;28;8982;-75
2022/11/29 11:58:32;;;;;;;;;25.80;25.40;;;;;10.78;47.05;99642.06;5017203;28;8936;-74
2022/11/29 12:01:15;;;;;;;;;27.80;24.80;;;;;10.83;47.49;99652.47;5050257;28;8860;-76
2022/11/29 12:03:51;;;;;;;;;29.20;25.80;;;;;10.40;48.45;99653.31;5066570;28;8978;-78
2022/11/29 12:06:43;;;;;;;;;25.00;24.20;;;;;10.42;48.16;99645.50;5017316;28;8968;-76
2022/11/29 12:09:23;;;;;;;;;26.80;21.80;;;;;10.58;48.72;99649.88;5048905;28;8995;-76
2022/11/29 12:12:03;;;;;;;;;24.60;24.40;;;;;10.79;48.44;99646.41;5066858;28;8891;-77
2022/11/29 12:14:42;;;;;;;;;25.40;23.40;;;;;10.76;48.04;99635.97;5034347;28;8871;-78
2022/11/29 12:17:18;;;;;;;;;34.00;28.20;;;;;10.76;48.17;99638.59;5044101;28;8830;-78
2022/11/29 12:20:04;;;;;;;;;34.40;32.00;;;;;11.07;47.14;99643.78;5044520;28;8919;-78
2022/11/29 12:22:39;;;;;;;;;36.40;29.20;;;;;11.06;47.84;99642.06;5074589;28;9769;-79
2022/11/29 12:25:22;;;;;;;;;25.60;23.40;;;;;10.90;47.39;99646.41;5088876;28;8895;-78
2022/11/29 12:27:52;;;;;;;;;22.60;21.60;;;;;10.62;47.31;99650.75;5090835;28;8863;-79